sensor_id;sensor_type;location;lat;lon;timestamp;P1;durP1;ratioP1;P2;durP2;ratioP2
31378;SDS011;61664;48.112;11.662;2023-07-29T00:01:57;0.55;;;0.50;;
31378;SDS011;61664;48.112;11.662;2023-07-29T00:04:24;0.47;;;0.47;;
31378;SDS011;61664;48.112;11.662;2023-07-29T00:06:50;0.57;;;0.50;;
31378;SDS011;61664;48.112;11.662;2023-07-29T00:09:17;0.45;;;0.45;;
31378;SDS011;61664;48.112;11.662;2023-07-29T00:11:44;0.60;;;0.52;;
31378;SDS011;61664;48.112;11.662;2023-07-29T00:14:11;1.02;;;0.60;;
31378;SDS011;61664;48.112;11.662;2023-07-29T00:16:38;1.00;;;0.60;;
31378;SDS011;61664;48.112;11.662;2023-07-29T00:19:06;0.40;;;0.40;;
31378;SDS011;61664;48.112;11.662;2023-07-29T00:21:32;2.65;;;0.40;;
31378;SDS011;61664;48.112;11.662;2023-07-29T00:23:59;0.52;;;0.52;;
31378;SDS011;61664;48.112;11.662;2023-07-29T00:26:27;0.50;;;0.50;;
31378;SDS011;61664;48.112;11.662;2023-07-29T00:28:57;0.40;;;0.40;;
31378;SDS011;61664;48.112;11.662;2023-07-29T00:31:24;0.32;;;0.32;;
31378;SDS011;61664;48.112;11.662;2023-07-29T00:33:51;0.40;;;0.40;;
31378;SDS011;61664;48.112;11.662;2023-07-29T00:36:19;0.32;;;0.32;;
31378;SDS011;61664;48.112;11.662;2023-07-29T00:38:46;0.60;;;0.60;;
31378;SDS011;61664;48.112;11.662;2023-07-29T00:41:13;0.40;;;0.40;;
31378;SDS011;61664;48.112;11.662;2023-07-29T00:43:41;0.50;;;0.50;;
31378;SDS011;61664;48.112;11.662;2023-07-29T00:46:08;0.47;;;0.47;;
31378;SDS011;61664;48.112;11.662;2023-07-29T00:48:39;0.40;;;0.40;;
31378;SDS011;61664;48.112;11.662;2023-07-29T00:51:06;0.40;;;0.40;;
31378;SDS011;61664;48.112;11.662;2023-07-29T00:53:33;0.50;;;0.50;;
31378;SDS011;61664;48.112;11.662;2023-07-29T00:56:00;0.50;;;0.50;;
31378;SDS011;61664;48.112;11.662;2023-07-29T00:58:27;0.38;;;0.38;;
31378;SDS011;61664;48.112;11.662;2023-07-29T01:00:54;0.40;;;0.40;;
31378;SDS011;61664;48.112;11.662;2023-07-29T01:03:22;0.65;;;0.65;;
31378;SDS011;61664;48.112;11.662;2023-07-29T01:15:09;0.50;;;0.50;;
31378;SDS011;61664;48.112;11.662;2023-07-29T01:17:58;0.28;;;0.28;;
31378;SDS011;61664;48.112;11.662;2023-07-29T01:20:37;0.30;;;0.30;;
31378;SDS011;61664;48.112;11.662;2023-07-29T01:23:06;0.47;;;0.47;;
31378;SDS011;61664;48.112;11.662;2023-07-29T01:25:33;0.40;;;0.40;;
31378;SDS011;61664;48.112;11.662;2023-07-29T01:28:00;0.52;;;0.50;;
31378;SDS011;61664;48.112;11.662;2023-07-29T01:30:33;0.40;;;0.40;;
31378;SDS011;61664;48.112;11.662;2023-07-29T01:33:10;0.40;;;0.40;;
31378;SDS011;61664;48.112;11.662;2023-07-29T01:36:01;0.65;;;0.40;;
31378;SDS011;61664;48.112;11.662;2023-07-29T01:38:44;0.30;;;0.30;;
31378;SDS011;61664;48.112;11.662;2023-07-29T01:41:14;0.40;;;0.40;;
31378;SDS011;61664;48.112;11.662;2023-07-29T01:43:43;0.40;;;0.35;;
31378;SDS011;61664;48.112;11.662;2023-07-29T01:46:13;0.40;;;0.40;;
31378;SDS011;61664;48.112;11.662;2023-07-29T01:48:41;0.70;;;0.50;;
31378;SDS011;61664;48.112;11.662;2023-07-29T01:51:10;0.40;;;0.40;;
31378;SDS011;61664;48.112;11.662;2023-07-29T01:53:38;0.47;;;0.47;;
31378;SDS011;61664;48.112;11.662;2023-07-29T01:56:05;0.30;;;0.30;;
31378;SDS011;61664;48.112;11.662;2023-07-29T01:58:32;0.45;;;0.43;;
31378;SDS011;61664;48.112;11.662;2023-07-29T02:00:59;0.50;;;0.40;;
31378;SDS011;61664;48.112;11.662;2023-07-29T02:03:26;0.50;;;0.50;;
31378;SDS011;61664;48.112;11.662;2023-07-29T02:05:53;0.90;;;0.40;;
31378;SDS011;61664;48.112;11.662;2023-07-29T02:08:20;0.38;;;0.38;;
31378;SDS011;61664;48.112;11.662;2023-07-29T02:10:47;0.50;;;0.40;;
31378;SDS011;61664;48.112;11.662;2023-07-29T02:13:15;0.30;;;0.30;;
31378;SDS011;61664;48.112;11.662;2023-07-29T02:15:42;0.43;;;0.43;;
31378;SDS011;61664;48.112;11.662;2023-07-29T02:18:09;0.28;;;0.28;;
31378;SDS011;61664;48.112;11.662;2023-07-29T02:20:36;0.40;;;0.40;;
31378;SDS011;61664;48.112;11.662;2023-07-29T02:23:02;0.55;;;0.55;;
31378;SDS011;61664;48.112;11.662;2023-07-29T02:25:30;0.40;;;0.40;;
31378;SDS011;61664;48.112;11.662;2023-07-29T02:27:56;0.25;;;0.25;;
31378;SDS011;61664;48.112;11.662;2023-07-29T02:30:23;0.20;;;0.20;;
31378;SDS011;61664;48.112;11.662;2023-07-29T02:32:50;0.30;;;0.30;;
31378;SDS011;61664;48.112;11.662;2023-07-29T02:35:17;1.38;;;0.50;;
31378;SDS011;61664;48.112;11.662;2023-07-29T02:37:44;0.40;;;0.40;;
31378;SDS011;61664;48.112;11.662;2023-07-29T02:40:11;0.22;;;0.22;;
31378;SDS011;61664;48.112;11.662;2023-07-29T02:42:38;0.55;;;0.47;;
31378;SDS011;61664;48.112;11.662;2023-07-29T02:45:06;0.40;;;0.40;;
31378;SDS011;61664;48.112;11.662;2023-07-29T02:47:36;0.38;;;0.35;;
31378;SDS011;61664;48.112;11.662;2023-07-29T02:50:04;0.98;;;0.77;;
31378;SDS011;61664;48.112;11.662;2023-07-29T02:52:32;0.40;;;0.40;;
31378;SDS011;61664;48.112;11.662;2023-07-29T02:54:58;0.40;;;0.40;;
31378;SDS011;61664;48.112;11.662;2023-07-29T02:57:25;0.30;;;0.30;;
31378;SDS011;61664;48.112;11.662;2023-07-29T02:59:52;0.60;;;0.60;;
31378;SDS011;61664;48.112;11.662;2023-07-29T03:02:19;0.63;;;0.63;;
31378;SDS011;61664;48.112;11.662;2023-07-29T03:04:47;0.40;;;0.38;;
31378;SDS011;61664;48.112;11.662;2023-07-29T03:07:14;0.75;;;0.30;;
31378;SDS011;61664;48.112;11.662;2023-07-29T03:09:42;0.43;;;0.43;;
31378;SDS011;61664;48.112;11.662;2023-07-29T03:12:10;0.30;;;0.30;;
31378;SDS011;61664;48.112;11.662;2023-07-29T03:14:37;0.70;;;0.50;;
31378;SDS011;61664;48.112;11.662;2023-07-29T03:17:04;0.40;;;0.40;;
31378;SDS011;61664;48.112;11.662;2023-07-29T03:19:31;0.20;;;0.20;;
31378;SDS011;61664;48.112;11.662;2023-07-29T03:21:58;0.70;;;0.45;;
31378;SDS011;61664;48.112;11.662;2023-07-29T03:24:25;0.30;;;0.30;;
31378;SDS011;61664;48.112;11.662;2023-07-29T03:26:52;0.50;;;0.50;;
31378;SDS011;61664;48.112;11.662;2023-07-29T03:29:19;0.40;;;0.35;;
31378;SDS011;61664;48.112;11.662;2023-07-29T03:31:46;0.93;;;0.70;;
31378;SDS011;61664;48.112;11.662;2023-07-29T03:34:13;0.20;;;0.20;;
31378;SDS011;61664;48.112;11.662;2023-07-29T03:36:40;0.60;;;0.60;;
31378;SDS011;61664;48.112;11.662;2023-07-29T03:39:07;0.88;;;0.85;;
31378;SDS011;61664;48.112;11.662;2023-07-29T03:41:34;0.30;;;0.30;;
31378;SDS011;61664;48.112;11.662;2023-07-29T03:44:00;0.40;;;0.40;;
31378;SDS011;61664;48.112;11.662;2023-07-29T03:46:27;0.30;;;0.30;;
31378;SDS011;61664;48.112;11.662;2023-07-29T03:48:54;0.50;;;0.50;;
31378;SDS011;61664;48.112;11.662;2023-07-29T03:51:21;1.15;;;0.60;;
31378;SDS011;61664;48.112;11.662;2023-07-29T03:53:49;0.57;;;0.57;;
31378;SDS011;61664;48.112;11.662;2023-07-29T03:56:16;0.40;;;0.40;;
31378;SDS011;61664;48.112;11.662;2023-07-29T03:58:43;0.30;;;0.30;;
31378;SDS011;61664;48.112;11.662;2023-07-29T04:01:11;3.70;;;0.30;;
31378;SDS011;61664;48.112;11.662;2023-07-29T04:03:38;0.40;;;0.40;;
31378;SDS011;61664;48.112;11.662;2023-07-29T04:06:05;0.45;;;0.45;;
31378;SDS011;61664;48.112;11.662;2023-07-29T04:08:33;0.40;;;0.40;;
31378;SDS011;61664;48.112;11.662;2023-07-29T04:11:00;0.30;;;0.30;;
31378;SDS011;61664;48.112;11.662;2023-07-29T04:13:27;0.32;;;0.32;;
31378;SDS011;61664;48.112;11.662;2023-07-29T04:15:54;0.55;;;0.47;;
31378;SDS011;61664;48.112;11.662;2023-07-29T04:18:21;0.30;;;0.30;;
31378;SDS011;61664;48.112;11.662;2023-07-29T04:20:48;0.32;;;0.30;;
31378;SDS011;61664;48.112;11.662;2023-07-29T04:23:15;0.50;;;0.40;;
31378;SDS011;61664;48.112;11.662;2023-07-29T04:25:42;0.40;;;0.32;;
31378;SDS011;61664;48.112;11.662;2023-07-29T04:28:09;0.40;;;0.40;;
31378;SDS011;61664;48.112;11.662;2023-07-29T04:30:35;1.83;;;0.63;;
31378;SDS011;61664;48.112;11.662;2023-07-29T04:33:03;0.60;;;0.60;;
31378;SDS011;61664;48.112;11.662;2023-07-29T04:35:30;0.30;;;0.30;;
31378;SDS011;61664;48.112;11.662;2023-07-29T04:37:57;0.30;;;0.30;;
31378;SDS011;61664;48.112;11.662;2023-07-29T04:40:23;0.20;;;0.20;;
31378;SDS011;61664;48.112;11.662;2023-07-29T04:42:51;0.30;;;0.30;;
31378;SDS011;61664;48.112;11.662;2023-07-29T04:45:18;0.38;;;0.38;;
31378;SDS011;61664;48.112;11.662;2023-07-29T04:47:45;0.38;;;0.38;;
31378;SDS011;61664;48.112;11.662;2023-07-29T04:50:12;0.88;;;0.35;;
31378;SDS011;61664;48.112;11.662;2023-07-29T04:52:38;0.45;;;0.40;;
31378;SDS011;61664;48.112;11.662;2023-07-29T04:55:05;0.30;;;0.30;;
31378;SDS011;61664;48.112;11.662;2023-07-29T04:57:33;0.80;;;0.30;;
31378;SDS011;61664;48.112;11.662;2023-07-29T05:00:00;0.35;;;0.35;;
31378;SDS011;61664;48.112;11.662;2023-07-29T05:02:29;0.45;;;0.45;;
31378;SDS011;61664;48.112;11.662;2023-07-29T05:04:56;0.35;;;0.30;;
31378;SDS011;61664;48.112;11.662;2023-07-29T05:07:23;0.30;;;0.30;;
31378;SDS011;61664;48.112;11.662;2023-07-29T05:09:50;0.25;;;0.25;;
31378;SDS011;61664;48.112;11.662;2023-07-29T05:12:17;0.28;;;0.20;;
31378;SDS011;61664;48.112;11.662;2023-07-29T05:14:44;0.40;;;0.40;;
31378;SDS011;61664;48.112;11.662;2023-07-29T05:17:11;0.60;;;0.60;;
31378;SDS011;61664;48.112;11.662;2023-07-29T05:19:38;0.70;;;0.57;;
31378;SDS011;61664;48.112;11.662;2023-07-29T05:22:04;0.77;;;0.77;;
31378;SDS011;61664;48.112;11.662;2023-07-29T05:24:31;0.50;;;0.50;;
31378;SDS011;61664;48.112;11.662;2023-07-29T05:26:58;1.95;;;0.60;;
31378;SDS011;61664;48.112;11.662;2023-07-29T05:29:25;0.60;;;0.60;;
31378;SDS011;61664;48.112;11.662;2023-07-29T05:31:52;0.80;;;0.80;;
31378;SDS011;61664;48.112;11.662;2023-07-29T05:34:19;0.73;;;0.70;;
31378;SDS011;61664;48.112;11.662;2023-07-29T05:36:46;0.70;;;0.68;;
31378;SDS011;61664;48.112;11.662;2023-07-29T05:39:13;0.50;;;0.50;;
31378;SDS011;61664;48.112;11.662;2023-07-29T05:41:40;0.85;;;0.85;;
31378;SDS011;61664;48.112;11.662;2023-07-29T05:44:07;0.50;;;0.50;;
31378;SDS011;61664;48.112;11.662;2023-07-29T05:46:36;0.50;;;0.50;;
31378;SDS011;61664;48.112;11.662;2023-07-29T05:49:03;0.63;;;0.63;;
31378;SDS011;61664;48.112;11.662;2023-07-29T05:51:30;0.60;;;0.60;;
31378;SDS011;61664;48.112;11.662;2023-07-29T05:53:57;0.50;;;0.50;;
31378;SDS011;61664;48.112;11.662;2023-07-29T05:56:24;0.57;;;0.57;;
31378;SDS011;61664;48.112;11.662;2023-07-29T05:58:51;0.70;;;0.68;;
31378;SDS011;61664;48.112;11.662;2023-07-29T06:01:17;0.40;;;0.40;;
31378;SDS011;61664;48.112;11.662;2023-07-29T06:03:47;0.52;;;0.47;;
31378;SDS011;61664;48.112;11.662;2023-07-29T06:06:15;0.57;;;0.57;;
31378;SDS011;61664;48.112;11.662;2023-07-29T06:08:42;0.40;;;0.40;;
31378;SDS011;61664;48.112;11.662;2023-07-29T06:11:09;2.13;;;0.57;;
31378;SDS011;61664;48.112;11.662;2023-07-29T06:13:36;4.25;;;0.82;;
31378;SDS011;61664;48.112;11.662;2023-07-29T06:16:02;0.90;;;0.75;;
31378;SDS011;61664;48.112;11.662;2023-07-29T06:18:30;0.35;;;0.28;;
31378;SDS011;61664;48.112;11.662;2023-07-29T06:20:57;0.30;;;0.30;;
31378;SDS011;61664;48.112;11.662;2023-07-29T06:23:24;0.20;;;0.20;;
31378;SDS011;61664;48.112;11.662;2023-07-29T06:25:50;0.40;;;0.30;;
31378;SDS011;61664;48.112;11.662;2023-07-29T06:28:17;0.28;;;0.25;;
31378;SDS011;61664;48.112;11.662;2023-07-29T06:30:44;0.30;;;0.30;;
31378;SDS011;61664;48.112;11.662;2023-07-29T06:33:11;0.50;;;0.40;;
31378;SDS011;61664;48.112;11.662;2023-07-29T06:35:38;0.50;;;0.40;;
31378;SDS011;61664;48.112;11.662;2023-07-29T06:38:05;0.32;;;0.32;;
31378;SDS011;61664;48.112;11.662;2023-07-29T06:40:32;0.30;;;0.30;;
31378;SDS011;61664;48.112;11.662;2023-07-29T06:42:59;0.20;;;0.20;;
31378;SDS011;61664;48.112;11.662;2023-07-29T06:45:26;0.50;;;0.40;;
31378;SDS011;61664;48.112;11.662;2023-07-29T06:47:53;0.57;;;0.52;;
31378;SDS011;61664;48.112;11.662;2023-07-29T06:50:20;1.27;;;0.20;;
31378;SDS011;61664;48.112;11.662;2023-07-29T06:52:47;0.40;;;0.40;;
31378;SDS011;61664;48.112;11.662;2023-07-29T06:55:14;2.10;;;0.28;;
31378;SDS011;61664;48.112;11.662;2023-07-29T06:57:41;0.30;;;0.30;;
31378;SDS011;61664;48.112;11.662;2023-07-29T07:00:08;0.30;;;0.30;;
31378;SDS011;61664;48.112;11.662;2023-07-29T07:02:35;0.30;;;0.28;;
31378;SDS011;61664;48.112;11.662;2023-07-29T07:05:02;2.50;;;0.28;;
31378;SDS011;61664;48.112;11.662;2023-07-29T07:07:29;0.20;;;0.20;;
31378;SDS011;61664;48.112;11.662;2023-07-29T07:09:57;0.40;;;0.20;;
31378;SDS011;61664;48.112;11.662;2023-07-29T07:12:26;0.30;;;0.30;;
31378;SDS011;61664;48.112;11.662;2023-07-29T07:14:53;0.20;;;0.20;;
31378;SDS011;61664;48.112;11.662;2023-07-29T07:17:20;0.30;;;0.28;;
31378;SDS011;61664;48.112;11.662;2023-07-29T07:19:47;0.20;;;0.20;;
31378;SDS011;61664;48.112;11.662;2023-07-29T07:22:14;0.30;;;0.30;;
31378;SDS011;61664;48.112;11.662;2023-07-29T07:24:42;0.32;;;0.32;;
31378;SDS011;61664;48.112;11.662;2023-07-29T07:27:10;0.20;;;0.20;;
31378;SDS011;61664;48.112;11.662;2023-07-29T07:29:37;0.17;;;0.17;;
31378;SDS011;61664;48.112;11.662;2023-07-29T07:32:04;0.40;;;0.32;;
31378;SDS011;61664;48.112;11.662;2023-07-29T07:34:32;0.30;;;0.30;;
31378;SDS011;61664;48.112;11.662;2023-07-29T07:36:59;0.40;;;0.30;;
31378;SDS011;61664;48.112;11.662;2023-07-29T07:39:27;0.20;;;0.20;;
31378;SDS011;61664;48.112;11.662;2023-07-29T07:41:54;0.25;;;0.25;;
31378;SDS011;61664;48.112;11.662;2023-07-29T07:44:20;2.25;;;0.30;;
31378;SDS011;61664;48.112;11.662;2023-07-29T07:46:47;0.28;;;0.28;;
31378;SDS011;61664;48.112;11.662;2023-07-29T07:49:14;0.00;;;0.00;;
31378;SDS011;61664;48.112;11.662;2023-07-29T07:51:41;0.00;;;0.00;;
31378;SDS011;61664;48.112;11.662;2023-07-29T07:54:10;0.00;;;0.00;;
31378;SDS011;61664;48.112;11.662;2023-07-29T07:56:37;0.00;;;0.00;;
31378;SDS011;61664;48.112;11.662;2023-07-29T07:59:04;0.00;;;0.00;;
31378;SDS011;61664;48.112;11.662;2023-07-29T08:01:35;0.00;;;0.00;;
31378;SDS011;61664;48.112;11.662;2023-07-29T08:04:03;0.00;;;0.00;;
31378;SDS011;61664;48.112;11.662;2023-07-29T08:06:30;0.00;;;0.00;;
31378;SDS011;61664;48.112;11.662;2023-07-29T08:08:59;0.00;;;0.00;;
31378;SDS011;61664;48.112;11.662;2023-07-29T08:11:26;0.00;;;0.00;;
31378;SDS011;61664;48.112;11.662;2023-07-29T08:13:53;0.00;;;0.00;;
31378;SDS011;61664;48.112;11.662;2023-07-29T08:16:20;0.00;;;0.00;;
31378;SDS011;61664;48.112;11.662;2023-07-29T08:18:47;0.00;;;0.00;;
31378;SDS011;61664;48.112;11.662;2023-07-29T08:21:14;0.00;;;0.00;;
31378;SDS011;61664;48.112;11.662;2023-07-29T08:23:41;0.00;;;0.00;;
31378;SDS011;61664;48.112;11.662;2023-07-29T08:26:08;0.00;;;0.00;;
31378;SDS011;61664;48.112;11.662;2023-07-29T08:28:35;0.00;;;0.00;;
31378;SDS011;61664;48.112;11.662;2023-07-29T08:31:05;0.00;;;0.00;;
31378;SDS011;61664;48.112;11.662;2023-07-29T08:33:33;0.00;;;0.00;;
31378;SDS011;61664;48.112;11.662;2023-07-29T08:36:01;0.00;;;0.00;;
31378;SDS011;61664;48.112;11.662;2023-07-29T08:38:29;0.00;;;0.00;;
31378;SDS011;61664;48.112;11.662;2023-07-29T08:44:23;0.00;;;0.00;;
31378;SDS011;61664;48.112;11.662;2023-07-29T08:47:01;0.00;;;0.00;;
31378;SDS011;61664;48.112;11.662;2023-07-29T08:49:29;0.00;;;0.00;;
31378;SDS011;61664;48.112;11.662;2023-07-29T08:51:58;0.00;;;0.00;;
31378;SDS011;61664;48.112;11.662;2023-07-29T08:54:25;0.00;;;0.00;;
31378;SDS011;61664;48.112;11.662;2023-07-29T08:56:52;0.00;;;0.00;;
31378;SDS011;61664;48.112;11.662;2023-07-29T08:59:19;0.00;;;0.00;;
31378;SDS011;61664;48.112;11.662;2023-07-29T09:01:47;0.00;;;0.00;;
31378;SDS011;61664;48.112;11.662;2023-07-29T09:04:14;0.00;;;0.00;;
31378;SDS011;61664;48.112;11.662;2023-07-29T09:06:42;0.00;;;0.00;;
31378;SDS011;61664;48.112;11.662;2023-07-29T09:09:11;0.00;;;0.00;;
31378;SDS011;61664;48.112;11.662;2023-07-29T09:11:38;0.00;;;0.00;;
31378;SDS011;61664;48.112;11.662;2023-07-29T09:14:05;0.00;;;0.00;;
31378;SDS011;61664;48.112;11.662;2023-07-29T09:16:32;0.00;;;0.00;;
31378;SDS011;61664;48.112;11.662;2023-07-29T09:19:02;0.00;;;0.00;;
31378;SDS011;61664;48.112;11.662;2023-07-29T09:21:29;0.00;;;0.00;;
31378;SDS011;61664;48.112;11.662;2023-07-29T09:23:57;0.00;;;0.00;;
31378;SDS011;61664;48.112;11.662;2023-07-29T09:26:31;0.00;;;0.00;;
31378;SDS011;61664;48.112;11.662;2023-07-29T09:28:58;0.00;;;0.00;;
31378;SDS011;61664;48.112;11.662;2023-07-29T09:31:27;0.00;;;0.00;;
31378;SDS011;61664;48.112;11.662;2023-07-29T09:33:59;0.00;;;0.00;;
31378;SDS011;61664;48.112;11.662;2023-07-29T09:36:32;0.00;;;0.00;;
31378;SDS011;61664;48.112;11.662;2023-07-29T09:39:01;0.10;;;0.00;;
31378;SDS011;61664;48.112;11.662;2023-07-29T09:41:29;0.00;;;0.00;;
31378;SDS011;61664;48.112;11.662;2023-07-29T09:44:03;0.00;;;0.00;;
31378;SDS011;61664;48.112;11.662;2023-07-29T09:46:35;0.00;;;0.00;;
31378;SDS011;61664;48.112;11.662;2023-07-29T09:49:05;0.00;;;0.00;;
31378;SDS011;61664;48.112;11.662;2023-07-29T09:51:37;0.00;;;0.00;;
31378;SDS011;61664;48.112;11.662;2023-07-29T09:54:05;0.00;;;0.00;;
31378;SDS011;61664;48.112;11.662;2023-07-29T09:56:33;0.00;;;0.00;;
31378;SDS011;61664;48.112;11.662;2023-07-29T09:59:07;0.00;;;0.00;;
31378;SDS011;61664;48.112;11.662;2023-07-29T10:01:34;0.00;;;0.00;;
31378;SDS011;61664;48.112;11.662;2023-07-29T10:04:03;0.00;;;0.00;;
31378;SDS011;61664;48.112;11.662;2023-07-29T10:06:32;0.00;;;0.00;;
31378;SDS011;61664;48.112;11.662;2023-07-29T10:09:02;0.00;;;0.00;;
31378;SDS011;61664;48.112;11.662;2023-07-29T10:11:30;0.00;;;0.00;;
31378;SDS011;61664;48.112;11.662;2023-07-29T10:13:59;0.00;;;0.00;;
31378;SDS011;61664;48.112;11.662;2023-07-29T10:16:35;0.00;;;0.00;;
31378;SDS011;61664;48.112;11.662;2023-07-29T10:19:04;0.00;;;0.00;;
31378;SDS011;61664;48.112;11.662;2023-07-29T10:21:34;0.00;;;0.00;;
31378;SDS011;61664;48.112;11.662;2023-07-29T10:24:06;0.00;;;0.00;;
31378;SDS011;61664;48.112;11.662;2023-07-29T10:26:45;0.00;;;0.00;;
31378;SDS011;61664;48.112;11.662;2023-07-29T10:29:18;0.00;;;0.00;;
31378;SDS011;61664;48.112;11.662;2023-07-29T10:31:49;0.00;;;0.00;;
31378;SDS011;61664;48.112;11.662;2023-07-29T10:34:22;0.00;;;0.00;;
31378;SDS011;61664;48.112;11.662;2023-07-29T10:36:51;0.00;;;0.00;;
31378;SDS011;61664;48.112;11.662;2023-07-29T10:39:19;0.40;;;0.40;;
31378;SDS011;61664;48.112;11.662;2023-07-29T10:41:56;0.80;;;0.80;;
31378;SDS011;61664;48.112;11.662;2023-07-29T10:47:12;0.65;;;0.65;;
31378;SDS011;61664;48.112;11.662;2023-07-29T10:49:44;0.63;;;0.63;;
31378;SDS011;61664;48.112;11.662;2023-07-29T10:52:28;1.00;;;0.90;;
31378;SDS011;61664;48.112;11.662;2023-07-29T10:54:56;0.88;;;0.88;;
31378;SDS011;61664;48.112;11.662;2023-07-29T10:57:34;1.17;;;1.10;;
31378;SDS011;61664;48.112;11.662;2023-07-29T11:00:03;1.83;;;1.50;;
31378;SDS011;61664;48.112;11.662;2023-07-29T11:02:32;1.40;;;1.30;;
31378;SDS011;61664;48.112;11.662;2023-07-29T11:05:17;1.35;;;1.25;;
31378;SDS011;61664;48.112;11.662;2023-07-29T11:07:45;1.67;;;1.58;;
31378;SDS011;61664;48.112;11.662;2023-07-29T11:10:14;1.50;;;1.40;;
31378;SDS011;61664;48.112;11.662;2023-07-29T11:17:37;1.95;;;1.85;;
31378;SDS011;61664;48.112;11.662;2023-07-29T11:22:35;2.20;;;2.10;;
31378;SDS011;61664;48.112;11.662;2023-07-29T11:25:03;1.95;;;1.85;;
31378;SDS011;61664;48.112;11.662;2023-07-29T11:27:31;2.03;;;1.92;;
31378;SDS011;61664;48.112;11.662;2023-07-29T11:29:59;1.75;;;1.65;;
31378;SDS011;61664;48.112;11.662;2023-07-29T11:32:28;1.70;;;1.60;;
31378;SDS011;61664;48.112;11.662;2023-07-29T11:34:56;1.25;;;1.20;;
31378;SDS011;61664;48.112;11.662;2023-07-29T11:37:23;0.90;;;0.90;;
31378;SDS011;61664;48.112;11.662;2023-07-29T11:39:50;0.90;;;0.90;;
31378;SDS011;61664;48.112;11.662;2023-07-29T11:42:17;1.38;;;1.27;;
31378;SDS011;61664;48.112;11.662;2023-07-29T11:44:44;0.85;;;0.85;;
31378;SDS011;61664;48.112;11.662;2023-07-29T11:47:12;1.35;;;1.02;;
31378;SDS011;61664;48.112;11.662;2023-07-29T11:49:39;1.23;;;1.13;;
31378;SDS011;61664;48.112;11.662;2023-07-29T11:52:07;1.00;;;1.00;;
31378;SDS011;61664;48.112;11.662;2023-07-29T11:54:36;1.00;;;1.00;;
31378;SDS011;61664;48.112;11.662;2023-07-29T11:57:07;1.27;;;1.27;;
31378;SDS011;61664;48.112;11.662;2023-07-29T11:59:36;1.30;;;1.27;;
31378;SDS011;61664;48.112;11.662;2023-07-29T12:02:05;1.27;;;1.17;;
31378;SDS011;61664;48.112;11.662;2023-07-29T12:04:43;0.93;;;0.93;;
31378;SDS011;61664;48.112;11.662;2023-07-29T12:07:12;1.23;;;1.13;;
31378;SDS011;61664;48.112;11.662;2023-07-29T12:09:41;1.00;;;1.00;;
31378;SDS011;61664;48.112;11.662;2023-07-29T12:12:09;1.33;;;1.23;;
31378;SDS011;61664;48.112;11.662;2023-07-29T12:14:36;1.45;;;1.35;;
31378;SDS011;61664;48.112;11.662;2023-07-29T12:17:04;1.30;;;1.20;;
31378;SDS011;61664;48.112;11.662;2023-07-29T12:19:33;1.30;;;1.27;;
31378;SDS011;61664;48.112;11.662;2023-07-29T12:22:02;1.13;;;1.10;;
31378;SDS011;61664;48.112;11.662;2023-07-29T12:24:32;1.80;;;1.70;;
31378;SDS011;61664;48.112;11.662;2023-07-29T12:27:01;1.60;;;1.50;;
31378;SDS011;61664;48.112;11.662;2023-07-29T12:29:28;1.63;;;1.52;;
31378;SDS011;61664;48.112;11.662;2023-07-29T12:31:59;1.63;;;1.52;;
31378;SDS011;61664;48.112;11.662;2023-07-29T12:34:28;1.52;;;1.42;;
31378;SDS011;61664;48.112;11.662;2023-07-29T12:36:57;1.63;;;1.52;;
31378;SDS011;61664;48.112;11.662;2023-07-29T12:39:26;2.15;;;1.92;;
31378;SDS011;61664;48.112;11.662;2023-07-29T12:41:59;1.50;;;1.40;;
31378;SDS011;61664;48.112;11.662;2023-07-29T12:44:32;1.73;;;1.60;;
31378;SDS011;61664;48.112;11.662;2023-07-29T12:47:02;1.60;;;1.50;;
31378;SDS011;61664;48.112;11.662;2023-07-29T12:49:31;1.60;;;1.50;;
31378;SDS011;61664;48.112;11.662;2023-07-29T12:51:59;1.42;;;1.33;;
31378;SDS011;61664;48.112;11.662;2023-07-29T12:54:26;1.63;;;1.52;;
31378;SDS011;61664;48.112;11.662;2023-07-29T12:56:53;1.60;;;1.50;;
31378;SDS011;61664;48.112;11.662;2023-07-29T12:59:20;1.77;;;1.67;;
31378;SDS011;61664;48.112;11.662;2023-07-29T13:01:47;1.33;;;1.23;;
31378;SDS011;61664;48.112;11.662;2023-07-29T13:04:14;1.38;;;1.38;;
31378;SDS011;61664;48.112;11.662;2023-07-29T13:06:41;1.00;;;1.00;;
31378;SDS011;61664;48.112;11.662;2023-07-29T13:09:08;0.82;;;0.82;;
31378;SDS011;61664;48.112;11.662;2023-07-29T13:11:35;0.90;;;0.80;;
31378;SDS011;61664;48.112;11.662;2023-07-29T13:14:02;0.68;;;0.68;;
31378;SDS011;61664;48.112;11.662;2023-07-29T13:16:29;0.60;;;0.60;;
31378;SDS011;61664;48.112;11.662;2023-07-29T13:18:56;1.00;;;0.82;;
31378;SDS011;61664;48.112;11.662;2023-07-29T13:21:24;1.10;;;1.00;;
31378;SDS011;61664;48.112;11.662;2023-07-29T13:23:51;1.08;;;1.00;;
31378;SDS011;61664;48.112;11.662;2023-07-29T13:26:18;2.05;;;1.60;;
31378;SDS011;61664;48.112;11.662;2023-07-29T13:28:45;1.35;;;0.85;;
31378;SDS011;61664;48.112;11.662;2023-07-29T13:31:12;0.98;;;0.98;;
31378;SDS011;61664;48.112;11.662;2023-07-29T13:33:39;1.20;;;1.20;;
31378;SDS011;61664;48.112;11.662;2023-07-29T13:36:06;1.98;;;1.60;;
31378;SDS011;61664;48.112;11.662;2023-07-29T13:38:34;2.72;;;1.90;;
31378;SDS011;61664;48.112;11.662;2023-07-29T13:41:02;1.38;;;1.27;;
31378;SDS011;61664;48.112;11.662;2023-07-29T13:43:29;2.13;;;1.90;;
31378;SDS011;61664;48.112;11.662;2023-07-29T13:45:56;2.38;;;2.17;;
31378;SDS011;61664;48.112;11.662;2023-07-29T13:48:23;1.98;;;1.88;;
31378;SDS011;61664;48.112;11.662;2023-07-29T13:50:50;1.98;;;1.75;;
31378;SDS011;61664;48.112;11.662;2023-07-29T13:53:17;2.13;;;2.03;;
31378;SDS011;61664;48.112;11.662;2023-07-29T13:55:44;2.25;;;2.05;;
31378;SDS011;61664;48.112;11.662;2023-07-29T13:58:11;1.90;;;1.70;;
31378;SDS011;61664;48.112;11.662;2023-07-29T14:00:38;1.85;;;1.75;;
31378;SDS011;61664;48.112;11.662;2023-07-29T14:03:05;1.80;;;1.70;;
31378;SDS011;61664;48.112;11.662;2023-07-29T14:05:32;2.67;;;2.10;;
31378;SDS011;61664;48.112;11.662;2023-07-29T14:07:59;2.13;;;2.03;;
31378;SDS011;61664;48.112;11.662;2023-07-29T14:10:26;1.85;;;1.75;;
31378;SDS011;61664;48.112;11.662;2023-07-29T14:12:53;1.95;;;1.73;;
31378;SDS011;61664;48.112;11.662;2023-07-29T14:15:20;1.88;;;1.77;;
31378;SDS011;61664;48.112;11.662;2023-07-29T14:17:48;1.90;;;1.80;;
31378;SDS011;61664;48.112;11.662;2023-07-29T14:20:15;4.38;;;1.85;;
31378;SDS011;61664;48.112;11.662;2023-07-29T14:22:41;1.88;;;1.77;;
31378;SDS011;61664;48.112;11.662;2023-07-29T14:25:08;1.50;;;1.40;;
31378;SDS011;61664;48.112;11.662;2023-07-29T14:27:36;1.88;;;1.77;;
31378;SDS011;61664;48.112;11.662;2023-07-29T14:30:03;1.67;;;1.58;;
31378;SDS011;61664;48.112;11.662;2023-07-29T14:32:33;2.15;;;1.95;;
31378;SDS011;61664;48.112;11.662;2023-07-29T14:35:00;2.50;;;2.00;;
31378;SDS011;61664;48.112;11.662;2023-07-29T14:37:30;1.75;;;1.65;;
31378;SDS011;61664;48.112;11.662;2023-07-29T14:39:58;2.38;;;2.17;;
31378;SDS011;61664;48.112;11.662;2023-07-29T14:42:26;1.65;;;1.55;;
31378;SDS011;61664;48.112;11.662;2023-07-29T14:44:53;1.77;;;1.67;;
31378;SDS011;61664;48.112;11.662;2023-07-29T14:47:21;1.77;;;1.63;;
31378;SDS011;61664;48.112;11.662;2023-07-29T14:49:48;1.92;;;1.83;;
31378;SDS011;61664;48.112;11.662;2023-07-29T14:52:15;1.92;;;1.83;;
31378;SDS011;61664;48.112;11.662;2023-07-29T14:54:42;1.98;;;1.85;;
31378;SDS011;61664;48.112;11.662;2023-07-29T14:57:09;1.90;;;1.80;;
31378;SDS011;61664;48.112;11.662;2023-07-29T14:59:36;1.73;;;1.63;;
31378;SDS011;61664;48.112;11.662;2023-07-29T15:02:03;1.65;;;1.55;;